createdAt,value
2017-09-29T00:03:03.812Z,1015.12
2017-09-29T00:13:03.748Z,1015.12
2017-09-29T00:23:03.810Z,1015.03
2017-09-29T00:33:03.774Z,1014.98
2017-09-29T00:43:03.914Z,1015
2017-09-29T00:53:03.825Z,1014.99
2017-09-29T01:03:03.766Z,1015.02
2017-09-29T01:13:03.844Z,1014.93
2017-09-29T01:23:03.785Z,1014.83
2017-09-29T01:33:03.765Z,1014.94
2017-09-29T01:43:03.834Z,1014.84
2017-09-29T01:53:03.774Z,1014.72
2017-09-29T02:03:03.748Z,1014.75
2017-09-29T02:13:07.528Z,1014.67
2017-09-29T02:23:03.776Z,1014.58
2017-09-29T02:33:03.816Z,1014.55
2017-09-29T02:43:03.787Z,1014.5
2017-09-29T02:53:03.765Z,1014.45
2017-09-29T03:03:03.812Z,1014.48
2017-09-29T03:13:03.763Z,1014.54
2017-09-29T03:23:03.836Z,1014.52
2017-09-29T03:33:03.808Z,1014.58
2017-09-29T03:43:03.769Z,1014.51
2017-09-29T03:53:03.838Z,1014.48
2017-09-29T04:03:03.790Z,1014.48
2017-09-29T04:13:03.846Z,1014.38
2017-09-29T04:23:03.809Z,1014.37
2017-09-29T04:33:03.757Z,1014.39
2017-09-29T04:43:03.825Z,1014.38
2017-09-29T04:53:03.796Z,1014.45
2017-09-29T05:03:03.760Z,1014.42
2017-09-29T05:13:03.824Z,1014.44
2017-09-29T05:23:03.758Z,1014.4
2017-09-29T05:33:03.851Z,1014.44
2017-09-29T05:43:03.808Z,1014.52
2017-09-29T05:53:04.781Z,1014.53
2017-09-29T06:03:03.801Z,1014.59
2017-09-29T06:13:03.875Z,1014.55
2017-09-29T06:23:04.854Z,1014.51
2017-09-29T06:33:03.780Z,1014.5
2017-09-29T06:43:03.842Z,1014.53
2017-09-29T06:53:03.777Z,1014.59
2017-09-29T07:03:03.858Z,1014.61
2017-09-29T07:13:03.844Z,1014.6
2017-09-29T07:23:03.794Z,1014.65
2017-09-29T07:33:03.863Z,1014.68
2017-09-29T07:43:03.764Z,1014.76
2017-09-29T07:53:03.790Z,1014.67
2017-09-29T08:03:03.822Z,1014.66
2017-09-29T08:13:03.789Z,1014.59
2017-09-29T08:23:03.851Z,1014.55
2017-09-29T08:33:03.819Z,1014.52
2017-09-29T08:43:03.790Z,1014.49
2017-09-29T08:53:03.842Z,1014.42
2017-09-29T09:03:03.803Z,1014.28
2017-09-29T09:13:03.872Z,1014.15
2017-09-29T09:23:03.831Z,1014.13
2017-09-29T09:33:03.770Z,1014
2017-09-29T09:43:03.839Z,1013.86
2017-09-29T09:53:03.822Z,1013.84
2017-09-29T10:03:16.042Z,1013.79
2017-09-29T10:13:15.953Z,1013.74
2017-09-29T10:23:09.754Z,1013.55
2017-09-29T10:33:16.427Z,1013.45
2017-09-29T10:43:08.180Z,1013.36
2017-09-29T10:53:16.160Z,1013.23
2017-09-29T11:03:15.862Z,1013.16
2017-09-29T11:13:12.813Z,1013.1
2017-09-29T11:23:12.517Z,1012.92
2017-09-29T11:33:05.726Z,1012.87
2017-09-29T11:43:05.591Z,1012.84
2017-09-29T11:53:06.465Z,1012.66
2017-09-29T12:03:08.900Z,1012.57
2017-09-29T12:13:10.944Z,1012.58
2017-09-29T12:23:05.596Z,1012.73
2017-09-29T12:33:06.676Z,1012.64
2017-09-29T12:43:05.449Z,1012.56
2017-09-29T12:53:14.788Z,1012.44
2017-09-29T13:03:12.976Z,1012.38
2017-09-29T13:13:15.563Z,1012.3
2017-09-29T13:23:13.629Z,1012.29
2017-09-29T13:33:15.891Z,1012.09
2017-09-29T13:43:15.656Z,1012.07
2017-09-29T13:53:11.665Z,1012.02
2017-09-29T14:03:12.364Z,1012.04
2017-09-29T14:13:04.311Z,1011.92
2017-09-29T14:23:05.551Z,1011.86
2017-09-29T14:33:06.160Z,1011.82
2017-09-29T14:43:16.454Z,1011.83
2017-09-29T14:53:10.357Z,1011.71
2017-09-29T15:03:10.003Z,1011.61
2017-09-29T15:13:09.036Z,1011.76
2017-09-29T15:23:15.545Z,1011.55
2017-09-29T15:33:15.026Z,1011.5
2017-09-29T15:43:10.492Z,1011.38
2017-09-29T15:53:06.642Z,1011.24
2017-09-29T16:03:14.611Z,1011.3
2017-09-29T16:13:08.621Z,1011.18
2017-09-29T16:23:15.736Z,1011.12
2017-09-29T16:33:11.896Z,1011.1
2017-09-29T16:43:11.254Z,1011.1
2017-09-29T16:53:14.955Z,1010.96
2017-09-29T17:03:09.929Z,1010.87
2017-09-29T17:13:17.194Z,1010.77
2017-09-29T17:23:14.822Z,1010.77
2017-09-29T17:33:14.444Z,1010.79
2017-09-29T17:53:17.870Z,1010.72
2017-09-29T18:03:05.865Z,1010.71
2017-09-29T18:23:16.134Z,1010.66
2017-09-29T18:33:12.717Z,1010.69
2017-09-29T18:43:15.401Z,1010.56
2017-09-29T18:53:16.343Z,1010.53
2017-09-29T19:03:17.042Z,1010.41
2017-09-29T19:13:15.704Z,1010.44
2017-09-29T19:23:03.903Z,1010.41
2017-09-29T19:33:03.924Z,1010.35
2017-09-29T19:43:03.927Z,1010.54
2017-09-29T19:53:04.732Z,1010.53
2017-09-29T20:03:03.940Z,1010.45
2017-09-29T20:13:03.898Z,1010.37
2017-09-29T20:23:03.920Z,1010.21
2017-09-29T20:33:03.898Z,1010.2
2017-09-29T20:43:03.986Z,1010.11
2017-09-29T20:53:03.913Z,1010.01
2017-09-29T21:03:03.903Z,1009.9
2017-09-29T21:13:03.950Z,1009.77
2017-09-29T21:23:03.927Z,1009.77
2017-09-29T21:33:04.012Z,1009.72
2017-09-29T21:43:03.962Z,1009.56
2017-09-29T21:53:03.922Z,1009.62
2017-09-29T22:03:03.960Z,1009.61
2017-09-29T22:13:03.912Z,1009.57
2017-09-29T22:23:03.881Z,1009.57
2017-09-29T22:33:03.974Z,1009.55
2017-09-29T22:43:03.894Z,1009.48
2017-09-29T22:53:03.949Z,1009.57
2017-09-29T23:03:03.917Z,1009.67
2017-09-29T23:13:03.882Z,1009.72
2017-09-29T23:23:03.939Z,1009.71
2017-09-29T23:33:03.900Z,1009.65
2017-09-29T23:43:03.965Z,1009.65
2017-09-29T23:53:03.919Z,1009.53
